sensor_id;sensor_type;location;lat;lon;timestamp;P1;durP1;ratioP1;P2;durP2;ratioP2
35743;SDS011;21867;52.012;4.324;2023-06-04T00:04:01;2.40;;;1.70;;
35743;SDS011;21867;52.012;4.324;2023-06-04T00:06:29;1.93;;;1.53;;
35743;SDS011;21867;52.012;4.324;2023-06-04T00:08:57;3.30;;;1.53;;
35743;SDS011;21867;52.012;4.324;2023-06-04T00:11:24;2.60;;;1.83;;
35743;SDS011;21867;52.012;4.324;2023-06-04T00:13:52;2.97;;;2.00;;
35743;SDS011;21867;52.012;4.324;2023-06-04T00:16:24;2.77;;;2.00;;
35743;SDS011;21867;52.012;4.324;2023-06-04T00:18:58;3.30;;;1.90;;
35743;SDS011;21867;52.012;4.324;2023-06-04T00:25:03;2.27;;;1.97;;
35743;SDS011;21867;52.012;4.324;2023-06-04T00:27:31;2.30;;;1.57;;
35743;SDS011;21867;52.012;4.324;2023-06-04T00:29:58;3.13;;;1.80;;
35743;SDS011;21867;52.012;4.324;2023-06-04T00:32:26;3.57;;;1.60;;
35743;SDS011;21867;52.012;4.324;2023-06-04T00:34:54;5.53;;;2.30;;
35743;SDS011;21867;52.012;4.324;2023-06-04T00:40:13;6.53;;;1.80;;
35743;SDS011;21867;52.012;4.324;2023-06-04T00:42:40;2.80;;;1.70;;
35743;SDS011;21867;52.012;4.324;2023-06-04T00:45:08;4.13;;;1.80;;
35743;SDS011;21867;52.012;4.324;2023-06-04T00:54:04;3.80;;;1.87;;
35743;SDS011;21867;52.012;4.324;2023-06-04T00:56:32;1.83;;;1.50;;
35743;SDS011;21867;52.012;4.324;2023-06-04T00:59:00;1.50;;;1.40;;
35743;SDS011;21867;52.012;4.324;2023-06-04T01:01:29;2.00;;;1.63;;
35743;SDS011;21867;52.012;4.324;2023-06-04T01:03:59;2.00;;;1.80;;
35743;SDS011;21867;52.012;4.324;2023-06-04T01:06:28;2.40;;;1.33;;
35743;SDS011;21867;52.012;4.324;2023-06-04T01:08:58;1.53;;;1.33;;
35743;SDS011;21867;52.012;4.324;2023-06-04T01:11:33;4.40;;;1.53;;
35743;SDS011;21867;52.012;4.324;2023-06-04T01:14:01;1.60;;;1.33;;
35743;SDS011;21867;52.012;4.324;2023-06-04T01:16:29;4.83;;;2.27;;
35743;SDS011;21867;52.012;4.324;2023-06-04T01:18:58;3.73;;;1.70;;
35743;SDS011;21867;52.012;4.324;2023-06-04T01:26:58;4.80;;;1.77;;
35743;SDS011;21867;52.012;4.324;2023-06-04T01:29:26;2.70;;;1.90;;
35743;SDS011;21867;52.012;4.324;2023-06-04T01:31:53;2.03;;;1.53;;
35743;SDS011;21867;52.012;4.324;2023-06-04T01:34:21;2.95;;;1.60;;
35743;SDS011;21867;52.012;4.324;2023-06-04T01:43:30;5.67;;;2.10;;
35743;SDS011;21867;52.012;4.324;2023-06-04T01:45:58;1.70;;;1.57;;
35743;SDS011;21867;52.012;4.324;2023-06-04T01:48:25;3.33;;;1.53;;
35743;SDS011;21867;52.012;4.324;2023-06-04T01:51:02;2.23;;;1.80;;
35743;SDS011;21867;52.012;4.324;2023-06-04T01:53:29;1.67;;;1.37;;
35743;SDS011;21867;52.012;4.324;2023-06-04T01:55:57;2.50;;;1.80;;
35743;SDS011;21867;52.012;4.324;2023-06-04T01:58:24;4.07;;;1.63;;
35743;SDS011;21867;52.012;4.324;2023-06-04T02:00:53;2.77;;;2.07;;
35743;SDS011;21867;52.012;4.324;2023-06-04T02:03:21;3.37;;;1.90;;
35743;SDS011;21867;52.012;4.324;2023-06-04T02:08:38;2.63;;;1.80;;
35743;SDS011;21867;52.012;4.324;2023-06-04T02:11:05;2.23;;;1.93;;
35743;SDS011;21867;52.012;4.324;2023-06-04T02:13:33;3.70;;;2.00;;
35743;SDS011;21867;52.012;4.324;2023-06-04T02:25:10;1.67;;;1.50;;
35743;SDS011;21867;52.012;4.324;2023-06-04T02:27:37;1.60;;;1.33;;
35743;SDS011;21867;52.012;4.324;2023-06-04T02:30:05;6.70;;;1.80;;
35743;SDS011;21867;52.012;4.324;2023-06-04T02:32:33;3.00;;;2.17;;
35743;SDS011;21867;52.012;4.324;2023-06-04T02:35:01;2.00;;;1.67;;
35743;SDS011;21867;52.012;4.324;2023-06-04T02:38:08;1.33;;;1.23;;
35743;SDS011;21867;52.012;4.324;2023-06-04T02:40:37;3.20;;;2.00;;
35743;SDS011;21867;52.012;4.324;2023-06-04T02:43:04;4.40;;;1.80;;
35743;SDS011;21867;52.012;4.324;2023-06-04T02:45:32;1.23;;;1.13;;
35743;SDS011;21867;52.012;4.324;2023-06-04T02:52:05;1.50;;;1.40;;
35743;SDS011;21867;52.012;4.324;2023-06-04T02:54:33;2.27;;;1.80;;
35743;SDS011;21867;52.012;4.324;2023-06-04T02:57:02;1.73;;;1.43;;
35743;SDS011;21867;52.012;4.324;2023-06-04T02:59:29;1.87;;;1.37;;
35743;SDS011;21867;52.012;4.324;2023-06-04T03:01:57;1.60;;;1.50;;
35743;SDS011;21867;52.012;4.324;2023-06-04T03:04:24;2.77;;;1.60;;
35743;SDS011;21867;52.012;4.324;2023-06-04T03:09:21;2.07;;;1.70;;
35743;SDS011;21867;52.012;4.324;2023-06-04T03:11:48;1.90;;;1.80;;
35743;SDS011;21867;52.012;4.324;2023-06-04T03:14:19;5.00;;;1.70;;
35743;SDS011;21867;52.012;4.324;2023-06-04T03:23:32;2.23;;;1.50;;
35743;SDS011;21867;52.012;4.324;2023-06-04T03:26:00;2.23;;;1.57;;
35743;SDS011;21867;52.012;4.324;2023-06-04T03:28:28;5.30;;;1.83;;
35743;SDS011;21867;52.012;4.324;2023-06-04T03:30:58;2.07;;;1.40;;
35743;SDS011;21867;52.012;4.324;2023-06-04T03:33:26;2.53;;;1.63;;
35743;SDS011;21867;52.012;4.324;2023-06-04T03:35:53;1.70;;;1.30;;
35743;SDS011;21867;52.012;4.324;2023-06-04T03:38:20;3.77;;;2.00;;
35743;SDS011;21867;52.012;4.324;2023-06-04T03:40:49;2.60;;;1.80;;
35743;SDS011;21867;52.012;4.324;2023-06-04T03:43:22;1.93;;;1.30;;
35743;SDS011;21867;52.012;4.324;2023-06-04T03:45:56;2.33;;;1.70;;
35743;SDS011;21867;52.012;4.324;2023-06-04T03:48:30;2.80;;;2.10;;
35743;SDS011;21867;52.012;4.324;2023-06-04T03:56:40;3.10;;;1.77;;
35743;SDS011;21867;52.012;4.324;2023-06-04T03:59:10;2.80;;;1.47;;
35743;SDS011;21867;52.012;4.324;2023-06-04T04:01:42;8.27;;;1.83;;
35743;SDS011;21867;52.012;4.324;2023-06-04T04:04:11;3.57;;;1.50;;
35743;SDS011;21867;52.012;4.324;2023-06-04T04:12:10;3.53;;;1.50;;
35743;SDS011;21867;52.012;4.324;2023-06-04T04:14:38;2.13;;;1.63;;
35743;SDS011;21867;52.012;4.324;2023-06-04T04:22:45;2.23;;;1.37;;
35743;SDS011;21867;52.012;4.324;2023-06-04T04:25:18;1.20;;;1.10;;
35743;SDS011;21867;52.012;4.324;2023-06-04T04:27:45;3.87;;;1.70;;
35743;SDS011;21867;52.012;4.324;2023-06-04T04:36:29;4.37;;;1.40;;
35743;SDS011;21867;52.012;4.324;2023-06-04T04:38:57;3.40;;;1.70;;
35743;SDS011;21867;52.012;4.324;2023-06-04T04:41:31;4.17;;;1.73;;
35743;SDS011;21867;52.012;4.324;2023-06-04T04:44:02;1.97;;;1.47;;
35743;SDS011;21867;52.012;4.324;2023-06-04T04:46:30;2.67;;;1.57;;
35743;SDS011;21867;52.012;4.324;2023-06-04T04:48:57;1.77;;;1.30;;
35743;SDS011;21867;52.012;4.324;2023-06-04T04:51:25;1.50;;;1.40;;
35743;SDS011;21867;52.012;4.324;2023-06-04T04:53:54;4.57;;;1.70;;
35743;SDS011;21867;52.012;4.324;2023-06-04T04:56:24;1.47;;;1.37;;
35743;SDS011;21867;52.012;4.324;2023-06-04T04:58:52;3.30;;;1.70;;
35743;SDS011;21867;52.012;4.324;2023-06-04T05:01:31;5.90;;;1.90;;
35743;SDS011;21867;52.012;4.324;2023-06-04T05:07:12;2.87;;;1.60;;
35743;SDS011;21867;52.012;4.324;2023-06-04T05:09:46;3.63;;;1.80;;
35743;SDS011;21867;52.012;4.324;2023-06-04T05:12:15;2.20;;;1.43;;
35743;SDS011;21867;52.012;4.324;2023-06-04T05:14:42;2.10;;;1.83;;
35743;SDS011;21867;52.012;4.324;2023-06-04T05:22:42;1.37;;;1.27;;
35743;SDS011;21867;52.012;4.324;2023-06-04T05:25:09;4.63;;;1.47;;
35743;SDS011;21867;52.012;4.324;2023-06-04T05:39:13;2.67;;;1.80;;
35743;SDS011;21867;52.012;4.324;2023-06-04T05:41:51;3.73;;;1.37;;
35743;SDS011;21867;52.012;4.324;2023-06-04T05:44:19;3.20;;;1.60;;
35743;SDS011;21867;52.012;4.324;2023-06-04T05:46:46;2.03;;;1.40;;
35743;SDS011;21867;52.012;4.324;2023-06-04T05:52:00;1.90;;;1.43;;
35743;SDS011;21867;52.012;4.324;2023-06-04T05:54:29;4.20;;;1.90;;
35743;SDS011;21867;52.012;4.324;2023-06-04T05:56:57;3.43;;;1.70;;
35743;SDS011;21867;52.012;4.324;2023-06-04T05:59:24;1.80;;;1.30;;
35743;SDS011;21867;52.012;4.324;2023-06-04T06:01:56;3.60;;;2.00;;
35743;SDS011;21867;52.012;4.324;2023-06-04T06:04:33;3.30;;;1.70;;
35743;SDS011;21867;52.012;4.324;2023-06-04T06:07:10;3.10;;;2.00;;
35743;SDS011;21867;52.012;4.324;2023-06-04T06:12:50;3.30;;;2.10;;
35743;SDS011;21867;52.012;4.324;2023-06-04T06:15:17;2.73;;;1.40;;
35743;SDS011;21867;52.012;4.324;2023-06-04T06:17:47;2.23;;;1.80;;
35743;SDS011;21867;52.012;4.324;2023-06-04T06:20:15;3.03;;;1.50;;
35743;SDS011;21867;52.012;4.324;2023-06-04T06:22:44;2.77;;;1.23;;
35743;SDS011;21867;52.012;4.324;2023-06-04T06:33:18;1.60;;;1.30;;
35743;SDS011;21867;52.012;4.324;2023-06-04T06:39:10;1.50;;;1.40;;
35743;SDS011;21867;52.012;4.324;2023-06-04T06:41:37;2.40;;;1.60;;
35743;SDS011;21867;52.012;4.324;2023-06-04T06:44:08;2.20;;;1.53;;
35743;SDS011;21867;52.012;4.324;2023-06-04T06:46:36;2.10;;;1.57;;
35743;SDS011;21867;52.012;4.324;2023-06-04T06:49:04;2.67;;;1.80;;
35743;SDS011;21867;52.012;4.324;2023-06-04T06:51:32;2.30;;;1.53;;
35743;SDS011;21867;52.012;4.324;2023-06-04T06:56:41;1.67;;;1.40;;
35743;SDS011;21867;52.012;4.324;2023-06-04T06:59:09;1.73;;;1.40;;
35743;SDS011;21867;52.012;4.324;2023-06-04T07:01:36;3.60;;;1.40;;
35743;SDS011;21867;52.012;4.324;2023-06-04T07:04:05;1.60;;;1.27;;
35743;SDS011;21867;52.012;4.324;2023-06-04T07:06:33;2.17;;;1.60;;
35743;SDS011;21867;52.012;4.324;2023-06-04T07:14:45;1.97;;;1.37;;
35743;SDS011;21867;52.012;4.324;2023-06-04T07:17:13;1.67;;;1.40;;
35743;SDS011;21867;52.012;4.324;2023-06-04T07:19:41;6.47;;;2.13;;
35743;SDS011;21867;52.012;4.324;2023-06-04T07:22:09;2.57;;;1.80;;
35743;SDS011;21867;52.012;4.324;2023-06-04T07:24:36;2.17;;;1.50;;
35743;SDS011;21867;52.012;4.324;2023-06-04T07:27:09;4.13;;;1.50;;
35743;SDS011;21867;52.012;4.324;2023-06-04T07:29:37;2.30;;;1.60;;
35743;SDS011;21867;52.012;4.324;2023-06-04T07:32:04;1.77;;;1.43;;
35743;SDS011;21867;52.012;4.324;2023-06-04T07:34:32;2.13;;;1.40;;
35743;SDS011;21867;52.012;4.324;2023-06-04T07:37:01;2.40;;;1.33;;
35743;SDS011;21867;52.012;4.324;2023-06-04T07:39:28;2.73;;;1.33;;
35743;SDS011;21867;52.012;4.324;2023-06-04T07:41:55;1.60;;;1.30;;
35743;SDS011;21867;52.012;4.324;2023-06-04T07:44:23;8.47;;;1.60;;
35743;SDS011;21867;52.012;4.324;2023-06-04T07:46:50;1.80;;;1.40;;
35743;SDS011;21867;52.012;4.324;2023-06-04T07:49:18;2.50;;;1.53;;
35743;SDS011;21867;52.012;4.324;2023-06-04T07:51:45;2.13;;;1.30;;
35743;SDS011;21867;52.012;4.324;2023-06-04T07:54:14;2.23;;;1.43;;
35743;SDS011;21867;52.012;4.324;2023-06-04T07:56:41;2.60;;;1.70;;
35743;SDS011;21867;52.012;4.324;2023-06-04T07:59:09;2.03;;;1.50;;
35743;SDS011;21867;52.012;4.324;2023-06-04T08:01:36;2.43;;;1.60;;
35743;SDS011;21867;52.012;4.324;2023-06-04T08:04:04;1.83;;;1.60;;
35743;SDS011;21867;52.012;4.324;2023-06-04T08:06:32;2.13;;;1.80;;
35743;SDS011;21867;52.012;4.324;2023-06-04T08:08:59;1.87;;;1.30;;
35743;SDS011;21867;52.012;4.324;2023-06-04T08:11:28;2.60;;;1.90;;
35743;SDS011;21867;52.012;4.324;2023-06-04T08:13:56;1.80;;;1.30;;
35743;SDS011;21867;52.012;4.324;2023-06-04T08:16:23;3.80;;;1.57;;
35743;SDS011;21867;52.012;4.324;2023-06-04T08:18:50;4.30;;;1.90;;
35743;SDS011;21867;52.012;4.324;2023-06-04T08:21:24;4.20;;;1.50;;
35743;SDS011;21867;52.012;4.324;2023-06-04T08:23:52;3.20;;;1.67;;
35743;SDS011;21867;52.012;4.324;2023-06-04T08:26:19;3.63;;;1.47;;
35743;SDS011;21867;52.012;4.324;2023-06-04T08:28:48;3.67;;;1.40;;
35743;SDS011;21867;52.012;4.324;2023-06-04T08:31:16;2.90;;;1.50;;
35743;SDS011;21867;52.012;4.324;2023-06-04T08:33:44;1.80;;;1.33;;
35743;SDS011;21867;52.012;4.324;2023-06-04T08:36:11;1.50;;;1.30;;
35743;SDS011;21867;52.012;4.324;2023-06-04T08:38:39;2.20;;;1.40;;
35743;SDS011;21867;52.012;4.324;2023-06-04T08:41:09;3.13;;;1.77;;
35743;SDS011;21867;52.012;4.324;2023-06-04T08:43:37;2.83;;;1.50;;
35743;SDS011;21867;52.012;4.324;2023-06-04T08:46:07;3.00;;;1.53;;
35743;SDS011;21867;52.012;4.324;2023-06-04T08:48:35;4.20;;;1.50;;
35743;SDS011;21867;52.012;4.324;2023-06-04T08:51:05;2.00;;;1.63;;
35743;SDS011;21867;52.012;4.324;2023-06-04T08:53:33;1.67;;;1.20;;
35743;SDS011;21867;52.012;4.324;2023-06-04T08:56:01;8.43;;;1.67;;
35743;SDS011;21867;52.012;4.324;2023-06-04T08:58:29;2.30;;;1.40;;
35743;SDS011;21867;52.012;4.324;2023-06-04T09:00:57;1.50;;;1.40;;
35743;SDS011;21867;52.012;4.324;2023-06-04T09:03:27;6.33;;;1.83;;
35743;SDS011;21867;52.012;4.324;2023-06-04T09:05:55;2.23;;;1.60;;
35743;SDS011;21867;52.012;4.324;2023-06-04T09:08:23;1.77;;;1.30;;
35743;SDS011;21867;52.012;4.324;2023-06-04T09:10:53;1.57;;;1.40;;
35743;SDS011;21867;52.012;4.324;2023-06-04T09:13:27;6.03;;;2.17;;
35743;SDS011;21867;52.012;4.324;2023-06-04T09:15:58;3.30;;;1.70;;
35743;SDS011;21867;52.012;4.324;2023-06-04T09:18:27;5.70;;;1.70;;
35743;SDS011;21867;52.012;4.324;2023-06-04T09:21:02;6.83;;;1.60;;
35743;SDS011;21867;52.012;4.324;2023-06-04T09:26:34;3.37;;;1.67;;
35743;SDS011;21867;52.012;4.324;2023-06-04T09:29:08;1.17;;;1.00;;
35743;SDS011;21867;52.012;4.324;2023-06-04T09:31:35;2.60;;;1.70;;
35743;SDS011;21867;52.012;4.324;2023-06-04T09:34:04;1.60;;;1.03;;
35743;SDS011;21867;52.012;4.324;2023-06-04T09:36:32;2.63;;;1.47;;
35743;SDS011;21867;52.012;4.324;2023-06-04T09:39:00;2.77;;;1.70;;
35743;SDS011;21867;52.012;4.324;2023-06-04T09:41:27;1.83;;;1.53;;
35743;SDS011;21867;52.012;4.324;2023-06-04T09:43:59;6.57;;;2.50;;
35743;SDS011;21867;52.012;4.324;2023-06-04T09:46:26;4.20;;;2.03;;
35743;SDS011;21867;52.012;4.324;2023-06-04T09:48:59;2.80;;;1.63;;
35743;SDS011;21867;52.012;4.324;2023-06-04T09:51:28;2.27;;;1.50;;
35743;SDS011;21867;52.012;4.324;2023-06-04T09:53:55;6.60;;;1.80;;
35743;SDS011;21867;52.012;4.324;2023-06-04T09:56:23;3.73;;;1.93;;
35743;SDS011;21867;52.012;4.324;2023-06-04T09:58:57;4.33;;;1.83;;
35743;SDS011;21867;52.012;4.324;2023-06-04T10:01:25;1.60;;;1.40;;
35743;SDS011;21867;52.012;4.324;2023-06-04T10:03:52;3.60;;;1.30;;
35743;SDS011;21867;52.012;4.324;2023-06-04T10:06:20;2.30;;;1.30;;
35743;SDS011;21867;52.012;4.324;2023-06-04T10:15:38;1.77;;;1.47;;
35743;SDS011;21867;52.012;4.324;2023-06-04T10:18:06;3.87;;;1.80;;
35743;SDS011;21867;52.012;4.324;2023-06-04T10:20:33;2.23;;;1.30;;
35743;SDS011;21867;52.012;4.324;2023-06-04T10:23:01;4.03;;;1.63;;
35743;SDS011;21867;52.012;4.324;2023-06-04T10:25:29;2.63;;;1.40;;
35743;SDS011;21867;52.012;4.324;2023-06-04T10:30:33;2.37;;;1.60;;
35743;SDS011;21867;52.012;4.324;2023-06-04T10:33:01;3.63;;;1.53;;
35743;SDS011;21867;52.012;4.324;2023-06-04T10:35:29;3.43;;;1.70;;
35743;SDS011;21867;52.012;4.324;2023-06-04T10:38:07;3.47;;;1.80;;
35743;SDS011;21867;52.012;4.324;2023-06-04T10:40:49;7.43;;;1.70;;
35743;SDS011;21867;52.012;4.324;2023-06-04T10:43:22;1.90;;;1.40;;
35743;SDS011;21867;52.012;4.324;2023-06-04T10:45:58;1.40;;;1.30;;
35743;SDS011;21867;52.012;4.324;2023-06-04T10:48:25;4.20;;;1.70;;
35743;SDS011;21867;52.012;4.324;2023-06-04T10:50:53;4.63;;;1.57;;
35743;SDS011;21867;52.012;4.324;2023-06-04T10:53:20;8.50;;;1.63;;
35743;SDS011;21867;52.012;4.324;2023-06-04T10:55:48;2.53;;;1.30;;
35743;SDS011;21867;52.012;4.324;2023-06-04T11:03:55;2.17;;;1.97;;
35743;SDS011;21867;52.012;4.324;2023-06-04T11:18:19;3.97;;;1.47;;
35743;SDS011;21867;52.012;4.324;2023-06-04T11:20:48;2.47;;;1.60;;
35743;SDS011;21867;52.012;4.324;2023-06-04T11:23:16;3.90;;;1.73;;
35743;SDS011;21867;52.012;4.324;2023-06-04T11:25:44;3.80;;;1.80;;
35743;SDS011;21867;52.012;4.324;2023-06-04T11:28:14;3.17;;;1.73;;
35743;SDS011;21867;52.012;4.324;2023-06-04T11:30:42;2.37;;;1.80;;
35743;SDS011;21867;52.012;4.324;2023-06-04T11:38:54;1.97;;;1.33;;
35743;SDS011;21867;52.012;4.324;2023-06-04T11:55:56;2.73;;;1.57;;
35743;SDS011;21867;52.012;4.324;2023-06-04T12:04:12;3.03;;;1.88;;
35743;SDS011;21867;52.012;4.324;2023-06-04T12:06:49;4.60;;;2.30;;
35743;SDS011;21867;52.012;4.324;2023-06-04T12:09:19;4.47;;;2.47;;
35743;SDS011;21867;52.012;4.324;2023-06-04T12:11:48;4.20;;;1.47;;
35743;SDS011;21867;52.012;4.324;2023-06-04T12:14:22;4.73;;;2.17;;
35743;SDS011;21867;52.012;4.324;2023-06-04T12:19:49;4.47;;;2.30;;
35743;SDS011;21867;52.012;4.324;2023-06-04T12:22:18;6.63;;;2.83;;
35743;SDS011;21867;52.012;4.324;2023-06-04T12:24:46;3.67;;;1.70;;
35743;SDS011;21867;52.012;4.324;2023-06-04T12:27:16;7.13;;;1.97;;
35743;SDS011;21867;52.012;4.324;2023-06-04T12:29:48;5.00;;;1.70;;
35743;SDS011;21867;52.012;4.324;2023-06-04T12:32:39;3.60;;;1.90;;
35743;SDS011;21867;52.012;4.324;2023-06-04T12:36:07;6.77;;;2.17;;
35743;SDS011;21867;52.012;4.324;2023-06-04T12:38:35;3.90;;;1.67;;
35743;SDS011;21867;52.012;4.324;2023-06-04T12:41:02;4.67;;;2.10;;
35743;SDS011;21867;52.012;4.324;2023-06-04T12:43:31;5.97;;;1.90;;
35743;SDS011;21867;52.012;4.324;2023-06-04T12:45:58;5.63;;;2.27;;
35743;SDS011;21867;52.012;4.324;2023-06-04T12:48:26;2.87;;;1.70;;
35743;SDS011;21867;52.012;4.324;2023-06-04T12:50:53;3.67;;;2.20;;
35743;SDS011;21867;52.012;4.324;2023-06-04T12:53:21;3.40;;;1.37;;
35743;SDS011;21867;52.012;4.324;2023-06-04T12:55:48;6.33;;;2.03;;
35743;SDS011;21867;52.012;4.324;2023-06-04T12:58:15;3.10;;;2.00;;
35743;SDS011;21867;52.012;4.324;2023-06-04T13:00:44;4.73;;;2.40;;
35743;SDS011;21867;52.012;4.324;2023-06-04T13:03:11;5.97;;;2.07;;
35743;SDS011;21867;52.012;4.324;2023-06-04T13:05:38;5.73;;;2.27;;
35743;SDS011;21867;52.012;4.324;2023-06-04T13:08:33;4.73;;;2.53;;
35743;SDS011;21867;52.012;4.324;2023-06-04T13:11:01;5.83;;;2.40;;
35743;SDS011;21867;52.012;4.324;2023-06-04T13:13:29;7.67;;;2.13;;
35743;SDS011;21867;52.012;4.324;2023-06-04T13:15:58;5.57;;;2.17;;
35743;SDS011;21867;52.012;4.324;2023-06-04T13:18:47;9.13;;;2.70;;
35743;SDS011;21867;52.012;4.324;2023-06-04T13:21:15;5.13;;;1.70;;
35743;SDS011;21867;52.012;4.324;2023-06-04T13:23:42;5.57;;;2.50;;
35743;SDS011;21867;52.012;4.324;2023-06-04T13:26:16;10.07;;;2.53;;
35743;SDS011;21867;52.012;4.324;2023-06-04T13:28:44;6.33;;;2.90;;
35743;SDS011;21867;52.012;4.324;2023-06-04T13:31:12;4.57;;;1.90;;
35743;SDS011;21867;52.012;4.324;2023-06-04T13:33:40;4.13;;;2.03;;
35743;SDS011;21867;52.012;4.324;2023-06-04T13:36:07;10.53;;;2.53;;
35743;SDS011;21867;52.012;4.324;2023-06-04T13:38:34;2.80;;;2.00;;
35743;SDS011;21867;52.012;4.324;2023-06-04T13:41:02;8.60;;;2.30;;
35743;SDS011;21867;52.012;4.324;2023-06-04T13:43:29;6.00;;;2.63;;
35743;SDS011;21867;52.012;4.324;2023-06-04T13:45:56;8.67;;;2.00;;
35743;SDS011;21867;52.012;4.324;2023-06-04T13:48:25;5.03;;;2.53;;
35743;SDS011;21867;52.012;4.324;2023-06-04T13:53:41;5.47;;;2.50;;
35743;SDS011;21867;52.012;4.324;2023-06-04T13:56:09;3.90;;;2.17;;
35743;SDS011;21867;52.012;4.324;2023-06-04T13:58:36;4.50;;;2.10;;
35743;SDS011;21867;52.012;4.324;2023-06-04T14:01:03;4.80;;;2.20;;
35743;SDS011;21867;52.012;4.324;2023-06-04T14:03:33;12.27;;;2.20;;
35743;SDS011;21867;52.012;4.324;2023-06-04T14:06:05;7.77;;;2.50;;
35743;SDS011;21867;52.012;4.324;2023-06-04T14:08:35;6.53;;;2.30;;
35743;SDS011;21867;52.012;4.324;2023-06-04T14:11:02;7.73;;;2.37;;
35743;SDS011;21867;52.012;4.324;2023-06-04T14:13:29;6.07;;;2.33;;
35743;SDS011;21867;52.012;4.324;2023-06-04T14:15:57;7.80;;;2.73;;
35743;SDS011;21867;52.012;4.324;2023-06-04T14:18:27;5.17;;;2.70;;
35743;SDS011;21867;52.012;4.324;2023-06-04T14:20:56;12.37;;;2.83;;
35743;SDS011;21867;52.012;4.324;2023-06-04T14:23:24;10.03;;;3.30;;
35743;SDS011;21867;52.012;4.324;2023-06-04T14:26:07;9.63;;;2.53;;
35743;SDS011;21867;52.012;4.324;2023-06-04T14:28:34;2.60;;;1.70;;
35743;SDS011;21867;52.012;4.324;2023-06-04T14:31:03;5.87;;;2.57;;
35743;SDS011;21867;52.012;4.324;2023-06-04T14:33:30;8.67;;;2.07;;
35743;SDS011;21867;52.012;4.324;2023-06-04T14:35:59;7.80;;;2.90;;
35743;SDS011;21867;52.012;4.324;2023-06-04T14:38:27;3.77;;;2.00;;
35743;SDS011;21867;52.012;4.324;2023-06-04T14:40:54;6.77;;;2.77;;
35743;SDS011;21867;52.012;4.324;2023-06-04T14:43:22;10.47;;;2.40;;
35743;SDS011;21867;52.012;4.324;2023-06-04T14:45:49;6.33;;;2.50;;
35743;SDS011;21867;52.012;4.324;2023-06-04T14:48:16;6.10;;;2.67;;
35743;SDS011;21867;52.012;4.324;2023-06-04T14:50:44;8.43;;;2.57;;
35743;SDS011;21867;52.012;4.324;2023-06-04T14:53:12;3.00;;;2.25;;
35743;SDS011;21867;52.012;4.324;2023-06-04T14:55:40;4.50;;;2.00;;
35743;SDS011;21867;52.012;4.324;2023-06-04T14:58:07;6.57;;;2.20;;
35743;SDS011;21867;52.012;4.324;2023-06-04T15:00:35;4.83;;;2.10;;
35743;SDS011;21867;52.012;4.324;2023-06-04T15:03:03;11.07;;;2.80;;
35743;SDS011;21867;52.012;4.324;2023-06-04T15:05:30;4.93;;;2.40;;
35743;SDS011;21867;52.012;4.324;2023-06-04T15:07:58;10.43;;;2.70;;
35743;SDS011;21867;52.012;4.324;2023-06-04T15:10:27;6.40;;;2.80;;
35743;SDS011;21867;52.012;4.324;2023-06-04T15:12:54;7.87;;;2.43;;
35743;SDS011;21867;52.012;4.324;2023-06-04T15:15:21;8.53;;;3.03;;
35743;SDS011;21867;52.012;4.324;2023-06-04T15:17:49;8.37;;;2.70;;
35743;SDS011;21867;52.012;4.324;2023-06-04T15:20:17;9.07;;;2.33;;
35743;SDS011;21867;52.012;4.324;2023-06-04T15:22:44;7.50;;;2.85;;
35743;SDS011;21867;52.012;4.324;2023-06-04T15:25:12;6.97;;;2.38;;
35743;SDS011;21867;52.012;4.324;2023-06-04T15:27:41;3.10;;;2.43;;
35743;SDS011;21867;52.012;4.324;2023-06-04T15:30:08;6.07;;;2.40;;
35743;SDS011;21867;52.012;4.324;2023-06-04T15:32:36;7.17;;;2.60;;
35743;SDS011;21867;52.012;4.324;2023-06-04T15:35:04;6.27;;;2.07;;
35743;SDS011;21867;52.012;4.324;2023-06-04T15:37:31;5.00;;;2.77;;
35743;SDS011;21867;52.012;4.324;2023-06-04T15:39:59;5.70;;;2.13;;
35743;SDS011;21867;52.012;4.324;2023-06-04T15:42:27;5.97;;;2.37;;
35743;SDS011;21867;52.012;4.324;2023-06-04T15:44:55;5.13;;;2.97;;
35743;SDS011;21867;52.012;4.324;2023-06-04T15:47:23;6.00;;;2.40;;
35743;SDS011;21867;52.012;4.324;2023-06-04T15:49:50;6.23;;;2.37;;
35743;SDS011;21867;52.012;4.324;2023-06-04T15:52:18;8.10;;;2.53;;
35743;SDS011;21867;52.012;4.324;2023-06-04T15:54:45;8.87;;;2.40;;
35743;SDS011;21867;52.012;4.324;2023-06-04T15:57:25;5.87;;;2.10;;
35743;SDS011;21867;52.012;4.324;2023-06-04T15:59:52;6.87;;;2.17;;
35743;SDS011;21867;52.012;4.324;2023-06-04T16:02:21;5.97;;;2.00;;
35743;SDS011;21867;52.012;4.324;2023-06-04T16:04:48;7.60;;;2.20;;
35743;SDS011;21867;52.012;4.324;2023-06-04T16:07:34;7.63;;;2.87;;
35743;SDS011;21867;52.012;4.324;2023-06-04T16:12:56;8.90;;;2.90;;
35743;SDS011;21867;52.012;4.324;2023-06-04T16:15:24;7.90;;;3.00;;
35743;SDS011;21867;52.012;4.324;2023-06-04T16:17:53;4.40;;;2.63;;
35743;SDS011;21867;52.012;4.324;2023-06-04T16:20:21;6.13;;;2.43;;
35743;SDS011;21867;52.012;4.324;2023-06-04T16:22:48;9.20;;;2.30;;
35743;SDS011;21867;52.012;4.324;2023-06-04T16:25:16;4.67;;;2.60;;
35743;SDS011;21867;52.012;4.324;2023-06-04T16:27:44;4.20;;;1.90;;
35743;SDS011;21867;52.012;4.324;2023-06-04T16:30:12;7.27;;;2.70;;
35743;SDS011;21867;52.012;4.324;2023-06-04T16:32:40;6.40;;;2.40;;
35743;SDS011;21867;52.012;4.324;2023-06-04T16:35:09;8.43;;;2.50;;
35743;SDS011;21867;52.012;4.324;2023-06-04T16:37:37;7.93;;;2.27;;
35743;SDS011;21867;52.012;4.324;2023-06-04T16:40:05;4.63;;;2.30;;
35743;SDS011;21867;52.012;4.324;2023-06-04T16:42:32;7.83;;;2.70;;
35743;SDS011;21867;52.012;4.324;2023-06-04T16:45:00;6.90;;;2.20;;
35743;SDS011;21867;52.012;4.324;2023-06-04T16:47:27;7.33;;;2.83;;
35743;SDS011;21867;52.012;4.324;2023-06-04T16:49:54;8.67;;;2.83;;
35743;SDS011;21867;52.012;4.324;2023-06-04T16:52:23;5.23;;;2.40;;
35743;SDS011;21867;52.012;4.324;2023-06-04T16:54:50;12.40;;;2.97;;
35743;SDS011;21867;52.012;4.324;2023-06-04T16:57:18;9.30;;;2.43;;
35743;SDS011;21867;52.012;4.324;2023-06-04T16:59:47;5.67;;;2.83;;
35743;SDS011;21867;52.012;4.324;2023-06-04T17:02:15;9.73;;;3.30;;
35743;SDS011;21867;52.012;4.324;2023-06-04T17:04:42;4.77;;;2.17;;
35743;SDS011;21867;52.012;4.324;2023-06-04T17:07:10;9.43;;;2.80;;
35743;SDS011;21867;52.012;4.324;2023-06-04T17:09:38;11.70;;;2.93;;
35743;SDS011;21867;52.012;4.324;2023-06-04T17:12:06;5.60;;;2.50;;
35743;SDS011;21867;52.012;4.324;2023-06-04T17:14:34;6.93;;;2.70;;
35743;SDS011;21867;52.012;4.324;2023-06-04T17:17:02;11.55;;;2.67;;
35743;SDS011;21867;52.012;4.324;2023-06-04T17:19:30;3.53;;;1.70;;
35743;SDS011;21867;52.012;4.324;2023-06-04T17:21:57;7.70;;;2.93;;
35743;SDS011;21867;52.012;4.324;2023-06-04T17:24:24;9.63;;;3.33;;
35743;SDS011;21867;52.012;4.324;2023-06-04T17:26:53;7.93;;;3.17;;
35743;SDS011;21867;52.012;4.324;2023-06-04T17:29:21;9.60;;;2.47;;
35743;SDS011;21867;52.012;4.324;2023-06-04T17:31:48;7.07;;;2.80;;
35743;SDS011;21867;52.012;4.324;2023-06-04T17:34:15;7.88;;;3.15;;
35743;SDS011;21867;52.012;4.324;2023-06-04T17:36:43;10.60;;;3.30;;
35743;SDS011;21867;52.012;4.324;2023-06-04T17:39:11;10.00;;;3.50;;
35743;SDS011;21867;52.012;4.324;2023-06-04T17:41:50;6.03;;;2.70;;
35743;SDS011;21867;52.012;4.324;2023-06-04T17:44:18;10.85;;;3.80;;
35743;SDS011;21867;52.012;4.324;2023-06-04T17:46:46;10.07;;;2.67;;
35743;SDS011;21867;52.012;4.324;2023-06-04T17:49:14;6.50;;;3.00;;
35743;SDS011;21867;52.012;4.324;2023-06-04T17:51:48;11.33;;;3.53;;
35743;SDS011;21867;52.012;4.324;2023-06-04T17:57:57;13.67;;;2.87;;
35743;SDS011;21867;52.012;4.324;2023-06-04T18:00:27;6.32;;;2.50;;
35743;SDS011;21867;52.012;4.324;2023-06-04T18:02:55;9.40;;;2.73;;
35743;SDS011;21867;52.012;4.324;2023-06-04T18:05:22;7.47;;;3.50;;
35743;SDS011;21867;52.012;4.324;2023-06-04T18:07:50;8.13;;;3.30;;
35743;SDS011;21867;52.012;4.324;2023-06-04T18:10:17;10.35;;;2.65;;